createdAt,value
2018-04-02T00:00:21.316Z,9.63
2018-04-02T00:02:49.080Z,9.60
2018-04-02T00:05:17.504Z,10.43
2018-04-02T00:07:45.263Z,11.80
2018-04-02T00:10:12.878Z,10.37
2018-04-02T00:12:41.790Z,10.80
2018-04-02T00:15:11.178Z,10.50
2018-04-02T00:17:39.182Z,10.93
2018-04-02T00:20:07.316Z,10.83
2018-04-02T00:22:36.237Z,11.07
2018-04-02T00:25:05.195Z,10.20
2018-04-02T00:27:32.747Z,10.90
2018-04-02T00:30:01.701Z,11.00
2018-04-02T00:32:29.689Z,11.03
2018-04-02T00:34:57.606Z,10.77
2018-04-02T00:37:26.514Z,12.17
2018-04-02T00:39:55.794Z,9.60
2018-04-02T00:42:24.020Z,9.57
2018-04-02T00:44:52.238Z,10.20
2018-04-02T00:47:20.034Z,10.70
2018-04-02T00:49:47.962Z,9.17
2018-04-02T00:52:15.739Z,9.97
2018-04-02T00:54:43.657Z,9.17
2018-04-02T00:57:12.292Z,9.17
2018-04-02T00:59:40.662Z,9.67
2018-04-02T01:02:08.350Z,10.10
2018-04-02T01:04:36.796Z,8.53
2018-04-02T01:07:05.206Z,8.70
2018-04-02T01:09:32.981Z,9.13
2018-04-02T01:12:00.957Z,8.70
2018-04-02T01:14:28.700Z,9.10
2018-04-02T01:16:57.069Z,9.13
2018-04-02T01:19:25.228Z,8.40
2018-04-02T01:21:53.538Z,8.60
2018-04-02T01:24:21.596Z,9.33
2018-04-02T01:26:49.271Z,8.03
2018-04-02T01:29:17.228Z,9.00
2018-04-02T01:31:45.423Z,8.67
2018-04-02T01:34:13.168Z,8.87
2018-04-02T01:36:42.444Z,8.53
2018-04-02T01:39:10.349Z,8.73
2018-04-02T01:41:39.209Z,7.73
2018-04-02T01:44:08.021Z,8.40
2018-04-02T01:46:35.715Z,8.47
2018-04-02T01:49:04.807Z,8.10
2018-04-02T01:51:32.611Z,7.67
2018-04-02T01:54:00.448Z,7.50
2018-04-02T01:56:28.356Z,7.90
2018-04-02T01:58:56.487Z,7.87
2018-04-02T02:01:24.709Z,7.47
2018-04-02T02:03:53.715Z,7.60
2018-04-02T02:06:21.784Z,7.43
2018-04-02T02:08:49.795Z,7.77
2018-04-02T02:11:17.443Z,7.27
2018-04-02T02:13:45.425Z,7.57
2018-04-02T02:16:13.145Z,7.07
2018-04-02T02:18:41.234Z,6.87
2018-04-02T02:21:08.966Z,7.63
2018-04-02T02:23:37.868Z,6.97
2018-04-02T02:26:06.471Z,8.23
2018-04-02T02:28:34.635Z,8.10
2018-04-02T02:31:02.393Z,7.10
2018-04-02T02:33:30.242Z,7.50
2018-04-02T02:35:57.932Z,7.10
2018-04-02T02:38:26.181Z,8.80
2018-04-02T02:40:53.633Z,7.23
2018-04-02T02:43:21.440Z,8.10
2018-04-02T02:45:49.716Z,7.50
2018-04-02T02:48:17.852Z,7.40
2018-04-02T02:50:47.006Z,7.27
2018-04-02T02:53:14.695Z,7.80
2018-04-02T02:55:42.749Z,7.20
2018-04-02T02:58:10.897Z,6.60
2018-04-02T03:00:38.733Z,7.20
2018-04-02T03:03:06.753Z,6.53
2018-04-02T03:05:34.814Z,7.20
2018-04-02T03:08:02.504Z,6.30
2018-04-02T03:10:30.501Z,7.13
2018-04-02T03:12:58.362Z,7.40
2018-04-02T03:15:26.033Z,6.97
2018-04-02T03:17:53.915Z,6.40
2018-04-02T03:20:22.377Z,7.00
2018-04-02T03:22:50.767Z,6.53
2018-04-02T03:25:18.648Z,6.13
2018-04-02T03:27:46.162Z,7.60
2018-04-02T03:30:13.843Z,6.30
2018-04-02T03:32:41.870Z,6.40
2018-04-02T03:35:09.530Z,7.00
2018-04-02T03:37:37.205Z,6.20
2018-04-02T03:40:05.822Z,7.03
2018-04-02T03:42:33.571Z,6.93
2018-04-02T03:45:02.179Z,6.70
2018-04-02T03:47:29.793Z,6.43
2018-04-02T03:49:57.255Z,6.77
2018-04-02T03:52:25.645Z,6.30
2018-04-02T03:54:54.206Z,6.83
2018-04-02T03:57:22.736Z,6.47
2018-04-02T03:59:50.921Z,6.10
2018-04-02T04:02:18.702Z,5.73
2018-04-02T04:04:46.634Z,6.90
2018-04-02T04:07:14.191Z,6.53
2018-04-02T04:09:42.382Z,7.37
2018-04-02T04:12:10.128Z,6.20
2018-04-02T04:14:37.795Z,6.70
2018-04-02T04:17:05.621Z,6.67
2018-04-02T04:19:33.377Z,6.13
2018-04-02T04:22:00.912Z,6.73
2018-04-02T04:24:28.812Z,6.70
2018-04-02T04:26:56.663Z,6.90
2018-04-02T04:29:25.816Z,6.50
2018-04-02T04:31:54.292Z,7.43
2018-04-02T04:34:22.267Z,6.23
2018-04-02T04:36:50.952Z,6.50
2018-04-02T04:39:19.143Z,6.40
2018-04-02T04:41:47.998Z,6.40
2018-04-02T04:44:15.723Z,6.60
2018-04-02T04:46:43.964Z,6.30
2018-04-02T04:49:12.026Z,5.93
2018-04-02T04:51:41.317Z,7.10
2018-04-02T04:54:09.148Z,6.33
2018-04-02T04:56:36.763Z,6.77
2018-04-02T04:59:04.481Z,6.80
2018-04-02T05:01:31.945Z,7.00
2018-04-02T05:03:59.473Z,6.10
2018-04-02T05:06:27.009Z,7.00
2018-04-02T05:08:54.621Z,6.67
2018-04-02T05:11:22.870Z,6.77
2018-04-02T05:13:51.656Z,5.60
2018-04-02T05:16:19.523Z,6.40
2018-04-02T05:18:47.198Z,6.60
2018-04-02T05:21:14.714Z,6.87
2018-04-02T05:23:43.004Z,6.77
2018-04-02T05:26:10.758Z,6.50
2018-04-02T05:28:39.965Z,6.00
2018-04-02T05:31:08.733Z,6.73
2018-04-02T05:33:36.880Z,6.00
2018-04-02T05:36:04.522Z,6.50
2018-04-02T05:38:32.191Z,6.70
2018-04-02T05:40:59.964Z,6.30
2018-04-02T05:43:28.212Z,6.93
2018-04-02T05:45:56.382Z,6.50
2018-04-02T05:48:25.065Z,7.20
2018-04-02T05:50:52.719Z,6.10
2018-04-02T05:53:20.714Z,6.17
2018-04-02T05:55:48.878Z,6.63
2018-04-02T05:58:16.511Z,6.20
2018-04-02T06:00:44.699Z,6.63
2018-04-02T06:03:12.652Z,6.03
2018-04-02T06:05:40.434Z,6.60
2018-04-02T06:08:08.037Z,6.90
2018-04-02T06:10:35.785Z,6.30
2018-04-02T06:13:04.347Z,6.70
2018-04-02T06:15:31.899Z,6.30
2018-04-02T06:17:59.418Z,5.97
2018-04-02T06:20:27.120Z,6.70
2018-04-02T06:22:54.942Z,7.00
2018-04-02T06:25:23.344Z,5.70
2018-04-02T06:27:50.891Z,6.97
2018-04-02T06:30:19.172Z,6.83
2018-04-02T06:32:47.987Z,6.43
2018-04-02T06:35:16.021Z,6.50
2018-04-02T06:37:43.905Z,7.60
2018-04-02T06:40:11.763Z,6.70
2018-04-02T06:42:39.550Z,6.80
2018-04-02T06:45:07.331Z,6.40
2018-04-02T06:47:36.203Z,7.83
2018-04-02T06:50:04.141Z,6.23
2018-04-02T06:52:31.926Z,6.20
2018-04-02T06:55:00.446Z,7.10
2018-04-02T06:57:28.127Z,6.87
2018-04-02T06:59:56.044Z,6.50
2018-04-02T07:02:23.851Z,6.43
2018-04-02T07:04:52.065Z,6.73
2018-04-02T07:07:20.214Z,6.23
2018-04-02T07:09:47.821Z,6.20
2018-04-02T07:12:15.981Z,6.17
2018-04-02T07:14:44.173Z,6.07
2018-04-02T07:17:12.137Z,6.47
2018-04-02T07:19:40.615Z,6.17
2018-04-02T07:22:08.495Z,6.70
2018-04-02T07:24:36.127Z,6.80
2018-04-02T07:27:03.638Z,5.77
2018-04-02T07:29:31.147Z,6.30
2018-04-02T07:31:58.824Z,6.73
2018-04-02T07:34:26.652Z,6.07
2018-04-02T07:36:54.369Z,7.50
2018-04-02T07:39:22.032Z,6.90
2018-04-02T07:41:50.098Z,6.70
2018-04-02T07:44:17.731Z,6.27
2018-04-02T07:46:45.416Z,6.50
2018-04-02T07:49:14.544Z,7.30
2018-04-02T07:51:42.556Z,5.87
2018-04-02T07:54:10.441Z,5.87
2018-04-02T07:56:38.498Z,7.00
2018-04-02T07:59:06.929Z,7.17
2018-04-02T08:01:35.492Z,8.20
2018-04-02T08:04:03.555Z,7.53
2018-04-02T08:06:31.327Z,5.13
2018-04-02T08:08:58.849Z,5.50
2018-04-02T08:11:27.512Z,6.10
2018-04-02T08:13:56.052Z,6.13
2018-04-02T08:16:24.142Z,6.80
2018-04-02T08:18:52.287Z,14.40
2018-04-02T08:21:20.690Z,11.97
2018-04-02T08:23:48.420Z,10.07
2018-04-02T08:26:15.999Z,8.93
2018-04-02T08:28:43.578Z,8.40
2018-04-02T08:31:11.140Z,7.43
2018-04-02T08:33:38.656Z,8.13
2018-04-02T08:36:06.181Z,8.40
2018-04-02T08:38:33.797Z,9.87
2018-04-02T08:41:01.640Z,8.07
2018-04-02T08:43:29.173Z,9.27
2018-04-02T08:45:56.638Z,9.03
2018-04-02T08:48:24.317Z,8.87
2018-04-02T08:50:52.782Z,8.80
2018-04-02T08:53:20.933Z,8.80
2018-04-02T08:55:48.484Z,10.20
2018-04-02T08:58:15.923Z,8.60
2018-04-02T09:00:43.786Z,8.53
2018-04-02T09:03:12.170Z,9.27
2018-04-02T09:05:39.635Z,9.20
2018-04-02T09:08:07.076Z,9.10
2018-04-02T09:10:34.477Z,9.20
2018-04-02T09:13:01.989Z,8.97
2018-04-02T09:15:29.442Z,9.43
2018-04-02T09:17:56.963Z,10.00
2018-04-02T09:20:25.360Z,8.97
2018-04-02T09:22:53.528Z,7.90
2018-04-02T09:25:22.212Z,8.97
2018-04-02T09:27:50.607Z,8.80
2018-04-02T09:30:18.140Z,8.90
2018-04-02T09:32:46.590Z,8.50
2018-04-02T09:35:14.838Z,8.40
2018-04-02T09:37:42.279Z,9.13
2018-04-02T09:40:10.446Z,8.40
2018-04-02T09:42:38.640Z,8.80
2018-04-02T09:45:06.063Z,8.47
2018-04-02T09:47:34.260Z,8.27
2018-04-02T09:50:02.022Z,8.27
2018-04-02T09:52:29.872Z,8.63
2018-04-02T09:54:57.669Z,7.73
2018-04-02T09:57:25.301Z,7.60
2018-04-02T09:59:52.856Z,8.60
2018-04-02T10:02:22.228Z,9.10
2018-04-02T10:04:50.184Z,8.30
2018-04-02T10:07:18.307Z,9.27
2018-04-02T10:09:45.942Z,8.07
2018-04-02T10:12:13.833Z,8.17
2018-04-02T10:14:42.193Z,9.30
2018-04-02T10:17:10.575Z,9.13
2018-04-02T10:19:38.879Z,12.10
2018-04-02T10:22:07.459Z,10.80
2018-04-02T10:24:35.856Z,9.53
2018-04-02T10:27:03.345Z,9.93
2018-04-02T10:29:30.801Z,10.27
2018-04-02T10:31:58.483Z,10.23
2018-04-02T10:34:26.045Z,8.90
2018-04-02T10:36:53.521Z,8.93
2018-04-02T10:39:21.897Z,9.90
2018-04-02T10:41:50.403Z,10.17
2018-04-02T10:44:17.954Z,9.77
2018-04-02T10:46:45.774Z,10.87
2018-04-02T10:49:13.275Z,9.67
2018-04-02T10:51:42.352Z,9.40
2018-04-02T10:54:09.897Z,8.23
2018-04-02T10:56:37.394Z,9.03
2018-04-02T10:59:05.208Z,8.77
2018-04-02T11:01:33.036Z,9.30
2018-04-02T11:04:00.673Z,8.90
2018-04-02T11:06:29.232Z,9.77
2018-04-02T11:08:56.683Z,9.77
2018-04-02T11:11:24.273Z,9.03
2018-04-02T11:13:52.627Z,9.97
2018-04-02T11:16:20.904Z,8.60
2018-04-02T11:18:48.656Z,10.00
2018-04-02T11:21:16.556Z,9.03
2018-04-02T11:23:44.131Z,9.40
2018-04-02T11:26:11.695Z,9.17
2018-04-02T11:28:39.304Z,9.13
2018-04-02T11:31:07.000Z,8.87
2018-04-02T11:33:35.592Z,9.77
2018-04-02T11:36:04.268Z,8.40
2018-04-02T11:38:32.524Z,8.57
2018-04-02T11:41:00.162Z,9.03
2018-04-02T11:43:27.675Z,8.30
2018-04-02T11:45:55.904Z,9.33
2018-04-02T11:48:23.419Z,8.60
2018-04-02T11:50:50.944Z,8.83
2018-04-02T11:53:18.659Z,8.63
2018-04-02T11:55:46.223Z,10.07
2018-04-02T11:58:14.886Z,8.17
2018-04-02T12:00:42.763Z,8.23
2018-04-02T12:03:11.202Z,7.70
2018-04-02T12:05:38.943Z,8.03
2018-04-02T12:08:06.894Z,7.70
2018-04-02T12:10:34.616Z,8.40
2018-04-02T12:13:02.490Z,8.37
2018-04-02T12:15:30.360Z,8.13
2018-04-02T12:17:58.040Z,8.63
2018-04-02T12:20:25.821Z,8.57
2018-04-02T12:22:54.770Z,8.70
2018-04-02T12:25:22.531Z,7.83
2018-04-02T12:27:50.324Z,8.30
2018-04-02T12:30:18.117Z,8.20
2018-04-02T12:32:46.476Z,8.00
2018-04-02T12:35:14.822Z,7.40
2018-04-02T12:37:43.113Z,7.93
2018-04-02T12:40:11.376Z,8.50
2018-04-02T12:42:39.282Z,7.47
2018-04-02T12:45:07.152Z,8.00
2018-04-02T12:47:35.161Z,7.83
2018-04-02T12:50:03.986Z,8.00
2018-04-02T12:52:32.279Z,7.57
2018-04-02T12:55:00.017Z,8.27
2018-04-02T12:57:28.898Z,8.40
2018-04-02T12:59:56.928Z,7.70
2018-04-02T13:02:24.789Z,7.57
2018-04-02T13:04:52.608Z,8.80
2018-04-02T13:07:20.782Z,7.40
2018-04-02T13:09:48.924Z,7.50
2018-04-02T13:12:16.558Z,8.30
2018-04-02T13:14:45.706Z,7.40
2018-04-02T13:17:14.144Z,7.80
2018-04-02T13:19:42.015Z,7.00
2018-04-02T13:22:10.552Z,8.07
2018-04-02T13:24:38.310Z,7.60
2018-04-02T13:27:06.143Z,7.23
2018-04-02T13:29:33.775Z,7.53
2018-04-02T13:32:01.682Z,7.80
2018-04-02T13:34:29.667Z,8.00
2018-04-02T13:36:57.763Z,8.00
2018-04-02T13:39:25.814Z,9.63
2018-04-02T13:41:53.769Z,10.40
2018-04-02T13:44:21.650Z,17.97
2018-04-02T13:46:50.476Z,20.63
2018-04-02T13:49:19.085Z,22.30
2018-04-02T13:51:46.807Z,22.87
2018-04-02T13:54:14.350Z,22.27
2018-04-02T13:56:42.211Z,21.90
2018-04-02T13:59:09.717Z,20.27
2018-04-02T14:01:38.212Z,22.40
2018-04-02T14:04:06.789Z,22.80
2018-04-02T14:06:35.489Z,23.07
2018-04-02T14:09:03.258Z,24.10
2018-04-02T14:11:31.456Z,25.30
2018-04-02T14:13:59.530Z,23.37
2018-04-02T14:16:27.760Z,23.80
2018-04-02T14:18:55.934Z,25.07
2018-04-02T14:21:24.927Z,23.70
2018-04-02T14:23:52.875Z,22.73
2018-04-02T14:26:20.497Z,22.10
2018-04-02T14:28:49.171Z,22.27
2018-04-02T14:31:17.763Z,20.57
2018-04-02T14:33:45.831Z,23.03
2018-04-02T14:36:14.501Z,21.10
2018-04-02T14:38:42.590Z,24.33
2018-04-02T14:41:10.335Z,20.83
2018-04-02T14:43:38.460Z,23.07
2018-04-02T14:46:06.457Z,23.50
2018-04-02T14:48:34.547Z,21.37
2018-04-02T14:51:02.489Z,21.97
2018-04-02T14:53:30.211Z,21.23
2018-04-02T14:55:57.953Z,22.17
2018-04-02T14:58:25.853Z,21.30
2018-04-02T15:00:53.786Z,20.23
2018-04-02T15:03:22.275Z,21.37
2018-04-02T15:05:51.011Z,21.03
2018-04-02T15:08:20.065Z,22.13
2018-04-02T15:10:47.894Z,19.30
2018-04-02T15:13:15.703Z,21.10
2018-04-02T15:15:44.458Z,20.87
2018-04-02T15:18:12.793Z,21.77
2018-04-02T15:20:40.420Z,21.17
2018-04-02T15:23:08.131Z,19.70
2018-04-02T15:25:36.460Z,19.53
2018-04-02T15:28:04.937Z,19.63
2018-04-02T15:30:33.516Z,18.07
2018-04-02T15:33:02.018Z,19.37
2018-04-02T15:35:31.497Z,19.47
2018-04-02T15:38:00.751Z,17.67
2018-04-02T15:40:29.630Z,18.53
2018-04-02T15:42:58.190Z,18.97
2018-04-02T15:45:25.843Z,19.20
2018-04-02T15:47:54.186Z,19.17
2018-04-02T15:50:22.117Z,16.80
2018-04-02T15:52:49.879Z,19.07
2018-04-02T15:55:17.634Z,18.33
2018-04-02T15:57:45.924Z,18.50
2018-04-02T16:00:14.621Z,18.43
2018-04-02T16:02:43.330Z,17.93
2018-04-02T16:05:11.055Z,16.80
2018-04-02T16:07:38.852Z,17.67
2018-04-02T16:10:07.403Z,15.70
2018-04-02T16:12:35.247Z,18.57
2018-04-02T16:15:03.080Z,17.03
2018-04-02T16:17:31.887Z,15.77
2018-04-02T16:19:59.598Z,16.50
2018-04-02T16:22:27.216Z,17.40
2018-04-02T16:24:55.011Z,16.13
2018-04-02T16:27:22.885Z,17.00
2018-04-02T16:29:50.739Z,15.30
2018-04-02T16:32:19.022Z,14.73
2018-04-02T16:34:48.016Z,16.70
2018-04-02T16:37:15.800Z,16.40
2018-04-02T16:39:43.585Z,15.97
2018-04-02T16:42:12.203Z,16.47
2018-04-02T16:44:40.089Z,15.60
2018-04-02T16:47:07.788Z,15.20
2018-04-02T16:49:35.723Z,15.70
2018-04-02T16:52:03.465Z,15.40
2018-04-02T16:54:31.471Z,15.00
2018-04-02T16:56:59.536Z,15.27
2018-04-02T16:59:27.374Z,15.20
2018-04-02T17:01:55.160Z,14.53
2018-04-02T17:04:22.943Z,15.00
2018-04-02T17:06:51.092Z,16.60
2018-04-02T17:09:19.947Z,14.10
2018-04-02T17:11:48.840Z,15.30
2018-04-02T17:14:17.365Z,15.20
2018-04-02T17:16:45.261Z,14.73
2018-04-02T17:19:13.208Z,14.93
2018-04-02T17:21:41.153Z,14.37
2018-04-02T17:24:09.580Z,14.33
2018-04-02T17:26:37.355Z,14.67
2018-04-02T17:29:05.280Z,14.33
2018-04-02T17:31:33.045Z,14.57
2018-04-02T17:34:00.918Z,13.40
2018-04-02T17:36:28.729Z,14.27
2018-04-02T17:38:56.556Z,14.40
2018-04-02T17:41:24.161Z,13.87
2018-04-02T17:43:53.136Z,14.67
2018-04-02T17:46:21.389Z,14.37
2018-04-02T17:48:49.693Z,12.90
2018-04-02T17:51:17.395Z,13.80
2018-04-02T17:53:45.127Z,12.53
2018-04-02T17:56:13.665Z,14.70
2018-04-02T17:58:41.450Z,14.57
2018-04-02T18:01:09.984Z,13.93
2018-04-02T18:03:37.826Z,14.63
2018-04-02T18:06:05.450Z,15.13
2018-04-02T18:08:33.217Z,15.10
2018-04-02T18:11:00.951Z,14.03
2018-04-02T18:13:28.746Z,15.00
2018-04-02T18:15:56.404Z,13.77
2018-04-02T18:18:24.180Z,13.57
2018-04-02T18:20:52.560Z,14.23
2018-04-02T18:23:20.529Z,13.70
2018-04-02T18:25:48.381Z,13.87
2018-04-02T18:28:16.540Z,14.27
2018-04-02T18:30:45.325Z,13.70
2018-04-02T18:33:13.957Z,14.53
2018-04-02T18:35:41.912Z,12.57
2018-04-02T18:38:10.212Z,12.30
2018-04-02T18:40:38.027Z,12.90
2018-04-02T18:43:05.724Z,12.57
2018-04-02T18:45:33.801Z,13.27
2018-04-02T18:48:02.741Z,13.40
2018-04-02T18:50:31.944Z,12.50
2018-04-02T18:52:59.924Z,11.83
2018-04-02T18:55:27.755Z,12.10
2018-04-02T18:57:56.611Z,12.63
2018-04-02T19:00:25.570Z,11.37
2018-04-02T19:02:53.383Z,12.10
2018-04-02T19:05:21.226Z,11.23
2018-04-02T19:07:49.182Z,11.67
2018-04-02T19:10:16.997Z,11.00
2018-04-02T19:12:45.431Z,11.60
2018-04-02T19:15:13.869Z,11.70
2018-04-02T19:17:41.683Z,12.30
2018-04-02T19:20:09.376Z,11.57
2018-04-02T19:22:37.556Z,11.13
2018-04-02T19:25:06.426Z,10.87
2018-04-02T19:27:34.231Z,11.87
2018-04-02T19:30:02.374Z,10.20
2018-04-02T19:32:30.225Z,11.17
2018-04-02T19:34:58.167Z,10.33
2018-04-02T19:37:25.981Z,11.57
2018-04-02T19:39:55.038Z,11.20
2018-04-02T19:42:23.379Z,9.90
2018-04-02T19:44:51.306Z,10.73
2018-04-02T19:47:19.019Z,10.50
2018-04-02T19:49:46.999Z,10.87
2018-04-02T19:52:14.791Z,10.47
2018-04-02T19:54:42.536Z,10.63
2018-04-02T19:57:10.582Z,9.63
2018-04-02T19:59:38.438Z,11.23
2018-04-02T20:02:06.612Z,10.10
2018-04-02T20:04:34.599Z,10.50
2018-04-02T20:07:02.671Z,9.07
2018-04-02T20:09:31.367Z,10.57
2018-04-02T20:11:59.310Z,10.27
2018-04-02T20:14:28.252Z,9.63
2018-04-02T20:16:56.042Z,10.40
2018-04-02T20:19:23.959Z,9.50
2018-04-02T20:21:52.371Z,9.70
2018-04-02T20:24:20.963Z,9.80
2018-04-02T20:26:48.766Z,10.43
2018-04-02T20:29:17.624Z,9.87
2018-04-02T20:31:45.769Z,9.50
2018-04-02T20:34:14.949Z,8.57
2018-04-02T20:36:42.903Z,9.70
2018-04-02T20:39:10.788Z,9.90
2018-04-02T20:41:40.505Z,9.80
2018-04-02T20:44:09.263Z,10.70
2018-04-02T20:46:37.932Z,10.30
2018-04-02T20:49:06.888Z,10.63
2018-04-02T20:51:35.811Z,10.17
2018-04-02T20:54:04.622Z,10.00
2018-04-02T20:56:33.144Z,9.50
2018-04-02T20:59:01.004Z,9.33
2018-04-02T21:01:28.710Z,9.23
2018-04-02T21:03:56.687Z,9.60
2018-04-02T21:06:25.503Z,9.87
2018-04-02T21:08:54.067Z,10.30
2018-04-02T21:11:23.210Z,10.93
2018-04-02T21:13:51.218Z,10.50
2018-04-02T21:16:19.816Z,9.90
2018-04-02T21:18:48.588Z,9.50
2018-04-02T21:21:17.308Z,9.10
2018-04-02T21:23:45.120Z,9.07
2018-04-02T21:26:13.633Z,10.00
2018-04-02T21:28:41.473Z,9.93
2018-04-02T21:31:09.407Z,8.50
2018-04-02T21:33:37.693Z,10.00
2018-04-02T21:36:05.731Z,8.87
2018-04-02T21:38:33.488Z,9.23
2018-04-02T21:41:01.549Z,9.40
2018-04-02T21:43:29.678Z,10.17
2018-04-02T21:45:57.879Z,9.03
2018-04-02T21:48:25.718Z,8.37
2018-04-02T21:50:53.331Z,9.50
2018-04-02T21:53:22.106Z,8.30
2018-04-02T21:55:50.282Z,8.90
2018-04-02T21:58:19.241Z,10.40
2018-04-02T22:00:47.320Z,10.70
2018-04-02T22:03:15.049Z,9.20
2018-04-02T22:05:42.881Z,10.00
2018-04-02T22:08:11.330Z,9.40
2018-04-02T22:10:39.440Z,9.20
2018-04-02T22:13:07.349Z,9.47
2018-04-02T22:15:35.018Z,9.33
2018-04-02T22:18:03.863Z,9.47
2018-04-02T22:20:31.967Z,8.67
2018-04-02T22:22:59.715Z,8.53
2018-04-02T22:25:28.228Z,9.20
2018-04-02T22:27:56.040Z,8.77
2018-04-02T22:30:24.367Z,9.93
2018-04-02T22:32:52.241Z,9.23
2018-04-02T22:35:20.051Z,9.30
2018-04-02T22:37:48.596Z,9.00
2018-04-02T22:40:16.792Z,9.60
2018-04-02T22:42:44.481Z,8.70
2018-04-02T22:45:19.532Z,8.60
2018-04-02T22:47:48.691Z,8.90
2018-04-02T22:50:16.577Z,10.20
2018-04-02T22:52:44.765Z,9.03
2018-04-02T22:55:12.380Z,8.20
2018-04-02T22:57:40.410Z,8.20
2018-04-02T23:00:08.703Z,8.13
2018-04-02T23:02:36.561Z,9.43
2018-04-02T23:05:04.324Z,8.90
2018-04-02T23:07:33.664Z,8.30
2018-04-02T23:10:01.506Z,10.50
2018-04-02T23:12:30.672Z,10.10
2018-04-02T23:14:59.564Z,9.70
2018-04-02T23:17:27.252Z,8.87
2018-04-02T23:19:55.721Z,9.83
2018-04-02T23:22:24.890Z,8.70
2018-04-02T23:24:53.920Z,9.60
2018-04-02T23:27:21.759Z,8.10
2018-04-02T23:29:50.018Z,8.77
2018-04-02T23:32:17.772Z,9.10
2018-04-02T23:34:45.845Z,9.50
2018-04-02T23:37:14.371Z,9.70
2018-04-02T23:39:42.119Z,10.50
2018-04-02T23:42:10.138Z,10.30
2018-04-02T23:44:37.988Z,9.07
2018-04-02T23:47:06.485Z,9.70
2018-04-02T23:49:34.911Z,10.00
2018-04-02T23:52:04.458Z,9.57
2018-04-02T23:54:32.281Z,10.80
2018-04-02T23:57:00.169Z,10.60
2018-04-02T23:59:29.503Z,11.30
